Nearby METAR Reports

 

EHGG - Groningen/Eelde, Netherlands
Distance from station: WZW 29km
Updated: 20/01/2020 12:55
Gedeeltelijk bewolkt
Gedeeltelijk bewolkt
 Wind van ZW
Wind: ZW 13 km/h
Temperatuur: 6°C
Wind Chill: 3°C
Dauwpunt: 5°C
Vochtigheid: 93%
Barometer: 1046 hPa
Clouds: Gedeeltelijk bewolkt
Visibility: 10 km
2020/01/20 11:55 EHGG 201155Z AUTO 22007KT 9999 NSC 06/05 Q1046 NOSIG
ETNT - Wittmundhaven(Ga, Germany
Distance from station: ONO 57km
Updated: 20/01/2020 12:20
Meestal bewolkt
Meestal bewolkt
 Wind van ZW
Wind: ZW 13 km/h
Temperatuur: 6°C
Wind Chill: 3°C
Dauwpunt: 4°C
Vochtigheid: 87%
Barometer: 1046 hPa
Clouds: Meestal bewolkt
Visibility: 10 km
Cloud details: Gedeeltelijk bewolkt 2134 m
Meestal bewolkt 2438 m
2020/01/20 11:20 ETNT 201120Z 23007KT 9999 SCT070 BKN080 06/04 Q1046 BLU BLU
 
ETWM - Meppen, Germany
Distance from station: ZZO 66km
Updated: 20/01/2020 12:20
Mist, Meestal bewolkt
Mist, Meestal bewolkt
 Wind van ZW
Wind: ZW 7 km/h
Temperatuur: 4°C
Wind Chill: 2°C
Dauwpunt: 4°C
Vochtigheid: 100%
Barometer: 1047 hPa
Overzicht: Mist
Clouds: Meestal bewolkt
Visibility: 5 km
Cloud details: Few Clouds 30 m
Meestal bewolkt 2804 m
2020/01/20 11:20 ETWM 201120Z 23004KT 5000 BR FEW001 BKN092 04/04 Q1047 WHT
EHMA - Awg-1 Sea, Netherlands
Distance from station: WNW 70km
Updated: 20/01/2020 12:55
Gedeeltelijk bewolkt
Gedeeltelijk bewolkt
 Wind van WZW
Wind: WZW 22 km/h
Temperatuur: 7°C
Wind Chill: 4°C
Dauwpunt: 6°C
Vochtigheid: 93%
Barometer: 1045 hPa
Clouds: Gedeeltelijk bewolkt
Visibility: 10 km
2020/01/20 11:55 EHMA 201155Z AUTO 24012KT 9999 NSC 07/06 Q1045
 
EHLW - Leeuwarden Rnlaf, Netherlands
Distance from station: W 79km
Updated: 20/01/2020 12:55
Zwaar bewolkt
Zwaar bewolkt
 Wind van ZW
Wind: ZW 17 km/h
Temperatuur: 7°C
Wind Chill: 4°C
Dauwpunt: 6°C
Vochtigheid: 93%
Barometer: 1046 hPa
Clouds: Zwaar bewolkt
Visibility: 10 km
Cloud details: Few Clouds 2347 m
Zwaar bewolkt 2652 m
2020/01/20 11:55 EHLW 201155Z AUTO 22009KT 9999 FEW077 OVC087 07/06 Q1046 BLU 23005KT CAVOK RMK R23